Canguaretama, Brazil
Current Conditions -  °F | °C
As of 6:50 AM on Thursday 27 Nov 2014 (Local Time) from SBNT Reporting Station
Light Rain Light Rain  
Wind Chill: 75°   Ceiling: 1500
Heat Index: 75°   Visibility: 4mi
Dew Point: 73°   Wind: 7mph
Humidity: 94%   Direction: 100°E
Pressure: 29.91"   Gusts: NA
Location:  6.38°S, 35.13°W
Report Text: SBNT 270950Z 10006KT 6000 -RA BKN015 SCT020 BKN100 24/23 Q1013
Loading
Personal Weather Stations






























Interactive Weather Map New forecast layout! Learn more

10-Day Weather Forecast

Advertisements
Track Severe Weather on mobile